Time;durP1;ratioP1;P1;durP2;ratioP2;P2;SDS_P1;SDS_P2;PMS_P1;PMS_P2;Temp;Humidity;BMP_temperature;BMP_pressure;BME280_temperature;BME280_humidity;BME280_pressure;Samples;Min_cycle;Max_cycle;Signal;HPM_P1;HPM_P2
2023/12/02 00:03:02;;;;;;;39.35;15.63;;;0.20;86.50;;;;;;9180396;19;20019;-71
2023/12/02 00:06:08;;;;;;;40.05;16.20;;;0.20;86.40;;;;;;9178077;19;20041;-70
2023/12/02 00:09:15;;;;;;;37.25;15.35;;;0.20;86.40;;;;;;9178553;19;20023;-70
2023/12/02 00:12:21;;;;;;;39.03;15.82;;;0.20;86.40;;;;;;9180028;19;20033;-71
2023/12/02 00:15:28;;;;;;;36.70;15.38;;;0.30;86.50;;;;;;9178155;19;20652;-71
2023/12/02 00:18:36;;;;;;;37.92;15.77;;;0.30;86.50;;;;;;9180054;19;20021;-70
2023/12/02 00:21:44;;;;;;;42.28;15.57;;;0.30;86.50;;;;;;9179612;19;20586;-70
2023/12/02 00:24:49;;;;;;;35.45;14.07;;;0.30;86.50;;;;;;9178490;19;20354;-71
2023/12/02 00:27:57;;;;;;;40.67;17.48;;;0.30;86.40;;;;;;9177112;19;20757;-70
2023/12/02 00:31:02;;;;;;;37.22;15.35;;;0.30;86.40;;;;;;9178701;19;20019;-70
2023/12/02 00:34:12;;;;;;;38.70;15.55;;;0.30;86.40;;;;;;9178785;19;20010;-71
2023/12/02 00:37:18;;;;;;;38.15;15.32;;;0.30;86.40;;;;;;9176074;19;20487;-71
2023/12/02 00:40:25;;;;;;;42.90;15.20;;;0.30;86.40;;;;;;9178620;19;20011;-71
2023/12/02 00:43:31;;;;;;;44.20;16.58;;;0.30;86.40;;;;;;9177609;19;20010;-62
2023/12/02 00:46:38;;;;;;;45.63;15.48;;;0.30;86.40;;;;;;9177081;19;20018;-62
2023/12/02 00:49:46;;;;;;;36.67;14.85;;;0.30;86.40;;;;;;9178726;19;20015;-62
2023/12/02 00:52:54;;;;;;;38.03;14.90;;;0.30;86.40;;;;;;9178176;19;20022;-64
2023/12/02 00:56:00;;;;;;;37.25;14.20;;;0.30;86.30;;;;;;9177241;19;20018;-63
2023/12/02 00:59:07;;;;;;;30.73;12.75;;;0.30;86.30;;;;;;9175544;19;20488;-63
2023/12/02 01:02:13;;;;;;;34.08;14.73;;;0.30;86.30;;;;;;9178284;19;20022;-63
2023/12/02 01:05:23;;;;;;;34.20;14.15;;;0.30;86.30;;;;;;9174445;19;20074;-64
2023/12/02 01:08:29;;;;;;;39.90;15.45;;;0.30;86.40;;;;;;9176007;19;20055;-62
2023/12/02 01:11:36;;;;;;;33.40;13.98;;;0.30;86.40;;;;;;9178147;19;20029;-62
2023/12/02 01:14:42;;;;;;;37.95;14.77;;;0.30;86.40;;;;;;9177633;19;20384;-64
2023/12/02 01:17:49;;;;;;;46.25;15.70;;;0.40;86.50;;;;;;9177036;19;20011;-63
2023/12/02 01:20:58;;;;;;;42.80;14.35;;;0.30;86.40;;;;;;9177762;19;20013;-66
2023/12/02 01:24:07;;;;;;;38.17;14.98;;;0.40;86.40;;;;;;9175621;19;20026;-65
2023/12/02 01:27:12;;;;;;;39.17;15.77;;;0.40;86.50;;;;;;9176000;19;20632;-64
2023/12/02 01:30:20;;;;;;;38.55;15.60;;;0.30;86.40;;;;;;9177504;19;20551;-66
2023/12/02 01:33:25;;;;;;;38.20;16.02;;;0.30;86.40;;;;;;9177213;19;20018;-63
2023/12/02 01:36:35;;;;;;;35.97;14.95;;;0.40;86.40;;;;;;9174931;19;20014;-63
2023/12/02 01:39:41;;;;;;;38.25;15.63;;;0.40;86.50;;;;;;9176074;19;20015;-64
2023/12/02 01:42:48;;;;;;;36.63;15.30;;;0.40;86.50;;;;;;9176675;19;20014;-64
2023/12/02 01:45:54;;;;;;;37.90;15.57;;;0.30;86.40;;;;;;9176712;19;20083;-62
2023/12/02 01:49:03;;;;;;;33.10;13.50;;;0.30;86.40;;;;;;9175467;19;20015;-65
2023/12/02 01:52:11;;;;;;;37.20;14.10;;;0.30;86.40;;;;;;9175609;19;20011;-66
2023/12/02 01:55:19;;;;;;;36.00;13.50;;;0.30;86.40;;;;;;9174751;19;20507;-67
2023/12/02 01:58:24;;;;;;;34.72;14.88;;;0.30;86.40;;;;;;9172424;19;20018;-66
2023/12/02 02:01:32;;;;;;;39.92;15.10;;;0.30;86.30;;;;;;9176114;19;20010;-67
2023/12/02 02:04:38;;;;;;;38.63;15.70;;;0.30;86.40;;;;;;9174691;19;20508;-67
2023/12/02 02:07:48;;;;;;;38.53;15.02;;;0.30;86.30;;;;;;9175872;19;20058;-68
2023/12/02 02:10:58;;;;;;;39.72;14.82;;;0.20;86.30;;;;;;9176229;19;20007;-67
2023/12/02 02:14:06;;;;;;;34.35;14.35;;;0.20;86.30;;;;;;9175167;19;20022;-68
2023/12/02 02:17:11;;;;;;;35.40;13.93;;;0.20;86.30;;;;;;9172638;19;20039;-67
2023/12/02 02:20:19;;;;;;;35.00;14.30;;;0.20;86.20;;;;;;9173610;19;20405;-67
2023/12/02 02:23:27;;;;;;;36.65;14.10;;;0.20;86.30;;;;;;9175005;19;20010;-67
2023/12/02 02:26:34;;;;;;;35.05;14.30;;;0.10;86.20;;;;;;9174716;19;20014;-67
2023/12/02 02:29:40;;;;;;;36.45;14.00;;;0.10;86.20;;;;;;9175196;19;20014;-67
2023/12/02 02:32:47;;;;;;;39.50;14.65;;;0.10;86.20;;;;;;9174794;19;20074;-67
2023/12/02 02:35:53;;;;;;;35.22;14.15;;;0.10;86.20;;;;;;9174353;19;20022;-67
2023/12/02 02:39:03;;;;;;;34.88;14.50;;;0.00;86.20;;;;;;9174826;19;20015;-67
2023/12/02 02:42:09;;;;;;;34.38;13.48;;;0.00;86.20;;;;;;9172113;19;20066;-67
2023/12/02 02:45:17;;;;;;;36.88;15.18;;;0.00;86.20;;;;;;9174563;19;20018;-67
2023/12/02 02:48:23;;;;;;;37.25;14.15;;;-0.10;86.20;;;;;;9174421;19;20360;-68
2023/12/02 02:51:30;;;;;;;34.45;14.32;;;-0.10;86.30;;;;;;9174112;19;20014;-66
2023/12/02 02:54:38;;;;;;;34.78;13.55;;;-0.20;86.20;;;;;;9174139;19;20027;-66
2023/12/02 02:57:46;;;;;;;31.98;13.00;;;-0.20;86.20;;;;;;9167409;19;20471;-67
2023/12/02 03:00:52;;;;;;;37.53;14.80;;;-0.20;86.80;;;;;;9173748;19;20021;-66
2023/12/02 03:03:59;;;;;;;34.10;15.13;;;-0.20;86.20;;;;;;9173706;19;20501;-71
2023/12/02 03:07:05;;;;;;;34.72;14.82;;;-0.20;86.30;;;;;;9173624;19;20006;-70
2023/12/02 03:10:15;;;;;;;36.83;14.45;;;-0.20;86.30;;;;;;9173499;19;20041;-71
2023/12/02 03:13:20;;;;;;;38.17;14.50;;;-0.30;86.20;;;;;;9173242;19;20011;-71
2023/12/02 03:16:28;;;;;;;40.33;15.25;;;-0.30;86.30;;;;;;9169432;19;20018;-70
2023/12/02 03:19:33;;;;;;;38.60;14.80;;;-0.30;86.30;;;;;;9170904;19;20535;-68
2023/12/02 03:22:41;;;;;;;45.17;15.73;;;-0.30;86.40;;;;;;9172009;19;20018;-71
2023/12/02 03:25:49;;;;;;;35.05;14.27;;;-0.30;86.30;;;;;;9170904;19;20433;-70
2023/12/02 03:28:57;;;;;;;33.28;14.15;;;-0.30;86.40;;;;;;9178862;19;20010;-73
2023/12/02 03:32:02;;;;;;;40.03;15.10;;;-0.30;86.40;;;;;;9181757;19;20025;-70
2023/12/02 03:35:10;;;;;;;38.20;14.25;;;-0.30;86.40;;;;;;9182127;19;20019;-71
2023/12/02 03:38:16;;;;;;;39.45;15.55;;;-0.30;86.40;;;;;;9178806;19;20022;-68
2023/12/02 03:41:26;;;;;;;41.08;14.80;;;-0.30;86.40;;;;;;9181812;19;20017;-71
2023/12/02 03:44:31;;;;;;;38.80;14.57;;;-0.30;86.40;;;;;;9181297;19;20688;-70
2023/12/02 03:47:39;;;;;;;42.95;15.65;;;-0.30;86.40;;;;;;9180540;19;20014;-71
2023/12/02 03:50:44;;;;;;;44.13;16.58;;;-0.30;86.40;;;;;;9181325;19;20432;-74
2023/12/02 03:53:52;;;;;;;35.70;14.85;;;-0.30;86.50;;;;;;9180123;19;20014;-71
2023/12/02 03:57:00;;;;;;;35.20;14.30;;;-0.30;86.50;;;;;;9176416;19;20021;-71
2023/12/02 04:00:11;;;;;;;38.20;14.65;;;-0.30;86.50;;;;;;9180763;19;20015;-71
2023/12/02 04:03:17;;;;;;;35.13;14.93;;;-0.20;86.50;;;;;;9180436;19;20034;-71
2023/12/02 04:06:25;;;;;;;39.17;15.55;;;-0.20;86.50;;;;;;9180777;19;20022;-71
2023/12/02 04:09:30;;;;;;;37.00;15.20;;;-0.20;86.50;;;;;;9179280;19;20491;-73
2023/12/02 04:12:41;;;;;;;39.13;14.73;;;-0.20;86.50;;;;;;9179139;19;20018;-71
2023/12/02 04:15:47;;;;;;;35.53;14.63;;;-0.20;86.40;;;;;;9179049;19;20023;-69
2023/12/02 04:18:54;;;;;;;37.53;15.02;;;-0.20;86.40;;;;;;9177686;19;20025;-71
2023/12/02 04:22:00;;;;;;;38.83;14.95;;;-0.20;86.40;;;;;;9179997;19;20514;-70
2023/12/02 04:25:09;;;;;;;35.88;14.75;;;-0.20;86.40;;;;;;9180060;19;20030;-70
2023/12/02 04:28:17;;;;;;;36.88;14.43;;;-0.10;86.50;;;;;;9179312;19;20788;-71
2023/12/02 04:31:24;;;;;;;34.72;14.65;;;-0.10;86.50;;;;;;9179907;19;20015;-69
2023/12/02 04:34:30;;;;;;;37.03;15.50;;;-0.20;86.40;;;;;;9179863;19;20748;-69
2023/12/02 04:37:38;;;;;;;37.90;15.02;;;-0.10;86.50;;;;;;9177844;19;20014;-72
2023/12/02 04:40:43;;;;;;;39.60;15.02;;;-0.10;86.50;;;;;;9179482;19;20018;-71
2023/12/02 04:43:53;;;;;;;40.67;15.32;;;-0.10;86.40;;;;;;9178600;19;20026;-69
2023/12/02 04:46:59;;;;;;;36.40;13.45;;;-0.10;86.40;;;;;;9178590;19;20482;-68
2023/12/02 04:50:07;;;;;;;41.17;15.02;;;-0.10;86.50;;;;;;9179374;19;20026;-68
2023/12/02 04:53:13;;;;;;;43.58;15.82;;;-0.10;86.50;;;;;;9178678;19;20018;-69
2023/12/02 04:56:20;;;;;;;39.17;14.77;;;-0.10;86.50;;;;;;9173002;19;20352;-69
2023/12/02 04:59:29;;;;;;;42.58;15.85;;;0.00;86.60;;;;;;9173825;19;20040;-70
2023/12/02 05:02:36;;;;;;;35.42;15.15;;;0.00;86.50;;;;;;9178882;19;20014;-72
2023/12/02 05:05:42;;;;;;;36.95;13.88;;;-0.10;86.40;;;;;;9177388;19;20599;-70
2023/12/02 05:08:49;;;;;;;33.97;14.75;;;0.00;87.10;;;;;;9175753;19;20078;-71
2023/12/02 05:11:55;;;;;;;38.35;15.25;;;0.00;86.50;;;;;;9176351;19;20013;-70
2023/12/02 05:15:09;;;;;;;37.40;14.07;;;0.00;86.50;;;;;;9177805;19;20130;-71
2023/12/02 05:18:14;;;;;;;44.97;17.08;;;0.00;86.50;;;;;;9176302;19;20022;-69
2023/12/02 05:21:22;;;;;;;42.67;16.23;;;0.00;86.50;;;;;;9177266;19;20538;-69
2023/12/02 05:24:28;;;;;;;40.58;15.23;;;0.00;86.50;;;;;;9175259;19;20007;-70
2023/12/02 05:27:35;;;;;;;37.03;14.35;;;0.00;86.50;;;;;;9176808;19;20015;-69
2023/12/02 05:30:45;;;;;;;41.78;16.88;;;0.00;86.40;;;;;;9176644;19;20059;-72
2023/12/02 05:33:53;;;;;;;36.65;14.43;;;0.00;86.40;;;;;;9176714;19;20023;-70
2023/12/02 05:36:58;;;;;;;44.22;15.38;;;0.00;86.40;;;;;;9176776;19;20017;-70
2023/12/02 05:40:08;;;;;;;45.92;16.40;;;0.00;86.40;;;;;;9174187;19;20042;-72
2023/12/02 05:43:14;;;;;;;45.45;16.50;;;0.00;86.40;;;;;;9176112;19;20018;-70
2023/12/02 05:46:24;;;;;;;40.67;15.68;;;0.00;86.40;;;;;;9176328;19;20022;-71
2023/12/02 05:49:29;;;;;;;41.80;15.80;;;0.00;86.40;;;;;;9175421;19;20060;-70
2023/12/02 05:52:37;;;;;;;41.20;15.07;;;0.00;86.40;;;;;;9176343;19;20015;-69
2023/12/02 05:55:42;;;;;;;40.38;15.77;;;0.00;86.40;;;;;;9176701;19;20014;-70
2023/12/02 05:58:50;;;;;;;40.35;14.65;;;0.00;86.30;;;;;;9170437;19;20018;-69
2023/12/02 06:01:59;;;;;;;38.70;14.93;;;-0.10;86.30;;;;;;9175923;19;20010;-70
2023/12/02 06:05:08;;;;;;;40.53;15.00;;;-0.10;86.30;;;;;;9172412;19;20018;-70
2023/12/02 06:08:14;;;;;;;42.03;16.00;;;-0.10;86.30;;;;;;9172554;19;20007;-70
2023/12/02 06:11:21;;;;;;;42.42;15.70;;;-0.10;86.30;;;;;;9172691;19;20033;-72
2023/12/02 06:14:27;;;;;;;40.42;15.73;;;-0.10;86.30;;;;;;9173967;19;20038;-70
2023/12/02 06:17:40;;;;;;;41.67;16.00;;;-0.10;86.30;;;;;;9170672;19;20017;-69
2023/12/02 06:20:46;;;;;;;37.78;15.60;;;-0.10;86.30;;;;;;9173097;19;20051;-69
2023/12/02 06:23:53;;;;;;;45.67;15.95;;;-0.10;86.30;;;;;;9169362;19;21288;-68
2023/12/02 06:26:58;;;;;;;45.05;15.90;;;-0.10;86.40;;;;;;9175327;19;20021;-69
2023/12/02 06:30:07;;;;;;;42.20;16.23;;;-0.10;86.30;;;;;;9175289;19;20037;-71
2023/12/02 06:33:18;;;;;;;38.78;14.75;;;-0.20;86.30;;;;;;9173450;19;20018;-70
2023/12/02 06:36:26;;;;;;;44.35;16.67;;;-0.10;86.40;;;;;;9175486;19;20010;-69
2023/12/02 06:39:31;;;;;;;49.03;17.17;;;-0.20;86.30;;;;;;9172974;19;20026;-68
2023/12/02 06:42:39;;;;;;;37.80;15.18;;;-0.20;86.30;;;;;;9174976;19;20476;-70
2023/12/02 06:45:45;;;;;;;36.05;15.13;;;-0.20;86.40;;;;;;9175054;19;20010;-70
2023/12/02 06:48:55;;;;;;;40.13;16.05;;;-0.20;86.60;;;;;;9174363;19;20019;-70
2023/12/02 06:52:00;;;;;;;42.67;15.25;;;-0.20;86.30;;;;;;9171679;19;20011;-70
2023/12/02 06:55:11;;;;;;;40.33;16.17;;;-0.20;86.30;;;;;;9173240;19;20046;-70
2023/12/02 06:58:19;;;;;;;40.80;15.85;;;-0.20;86.30;;;;;;9169545;19;20028;-70
2023/12/02 07:01:29;;;;;;;39.70;14.85;;;-0.20;86.30;;;;;;9172143;19;20003;-70
2023/12/02 07:04:37;;;;;;;42.97;16.13;;;-0.20;86.30;;;;;;9182537;19;20910;-70
2023/12/02 07:07:44;;;;;;;38.55;14.48;;;-0.20;86.30;;;;;;9183129;19;20029;-70
2023/12/02 07:10:50;;;;;;;48.45;16.55;;;-0.20;86.20;;;;;;9182030;19;20014;-70
2023/12/02 07:13:57;;;;;;;42.15;16.00;;;-0.20;86.30;;;;;;9183011;19;20025;-70
2023/12/02 07:17:04;;;;;;;40.78;15.20;;;-0.20;86.30;;;;;;9180826;19;20018;-70
2023/12/02 07:20:17;;;;;;;40.30;15.23;;;-0.30;86.20;;;;;;9180452;19;20037;-68
2023/12/02 07:23:22;;;;;;;39.13;16.65;;;-0.20;86.30;;;;;;9180377;19;20060;-70
2023/12/02 07:26:30;;;;;;;38.92;15.65;;;-0.20;86.40;;;;;;9182671;19;20011;-69
2023/12/02 07:29:36;;;;;;;36.83;14.88;;;-0.30;86.90;;;;;;9182304;19;20388;-69
2023/12/02 07:32:47;;;;;;;39.42;14.50;;;-0.20;86.30;;;;;;9180338;19;20018;-69
2023/12/02 07:35:55;;;;;;;38.67;15.75;;;-0.30;86.20;;;;;;9178901;19;20141;-70
2023/12/02 07:39:03;;;;;;;37.45;15.00;;;-0.20;86.30;;;;;;9180711;19;20014;-70
2023/12/02 07:42:08;;;;;;;33.45;14.32;;;-0.20;86.20;;;;;;9181832;19;20028;-71
2023/12/02 07:45:17;;;;;;;38.42;15.52;;;-0.20;86.20;;;;;;9180475;19;20019;-71
2023/12/02 07:48:22;;;;;;;40.17;14.32;;;-0.30;86.10;;;;;;9180727;19;20559;-69
2023/12/02 07:51:32;;;;;;;38.95;14.60;;;-0.20;86.20;;;;;;9177007;19;20007;-72
2023/12/02 07:54:38;;;;;;;40.40;15.77;;;-0.30;86.20;;;;;;9180186;19;20426;-70
2023/12/02 07:57:45;;;;;;;36.78;15.40;;;-0.20;86.30;;;;;;9173042;19;20029;-67
2023/12/02 08:00:51;;;;;;;38.25;13.63;;;-0.30;86.20;;;;;;9178347;19;20051;-68
2023/12/02 08:03:59;;;;;;;42.92;15.15;;;-0.20;86.20;;;;;;9180239;19;20011;-70
2023/12/02 08:07:07;;;;;;;33.65;14.05;;;-0.30;86.10;;;;;;9179016;19;20018;-71
2023/12/02 08:10:15;;;;;;;37.08;13.88;;;-0.20;86.20;;;;;;9178779;19;20014;-68
2023/12/02 08:13:21;;;;;;;43.60;15.65;;;-0.30;86.20;;;;;;9179966;19;20115;-72
2023/12/02 08:16:28;;;;;;;32.22;13.52;;;-0.20;86.10;;;;;;9177948;19;20025;-70
2023/12/02 08:19:35;;;;;;;34.30;13.48;;;-0.20;86.20;;;;;;9178428;19;20475;-66
2023/12/02 08:22:45;;;;;;;38.72;14.20;;;-0.20;86.20;;;;;;9178679;19;20029;-67
2023/12/02 08:25:50;;;;;;;39.50;13.75;;;-0.20;86.20;;;;;;9178911;19;20029;-70
2023/12/02 08:28:58;;;;;;;43.90;14.63;;;-0.20;86.30;;;;;;9177300;19;20018;-68
2023/12/02 08:32:03;;;;;;;38.38;14.48;;;-0.20;86.30;;;;;;9177117;19;20051;-68
2023/12/02 08:35:11;;;;;;;39.08;14.10;;;-0.20;86.20;;;;;;9179268;19;20025;-67
2023/12/02 08:38:19;;;;;;;39.47;14.90;;;-0.10;86.30;;;;;;9178482;19;20015;-64
2023/12/02 08:41:26;;;;;;;35.80;13.32;;;-0.10;86.30;;;;;;9175891;19;20025;-65
2023/12/02 08:44:32;;;;;;;35.72;15.45;;;-0.10;86.30;;;;;;9177333;19;20047;-65
2023/12/02 08:47:40;;;;;;;34.22;13.48;;;-0.10;86.30;;;;;;9175047;19;20024;-68
2023/12/02 08:50:46;;;;;;;37.35;14.38;;;-0.10;86.30;;;;;;9178661;19;20022;-68
2023/12/02 08:54:02;;;;;;;39.72;14.45;;;-0.10;86.20;;;;;;9176330;19;20629;-67
2023/12/02 08:57:07;;;;;;;36.15;14.50;;;-0.10;86.30;;;;;;9174438;19;20048;-68
2023/12/02 09:00:16;;;;;;;32.40;13.98;;;0.00;86.30;;;;;;9176631;19;20376;-65
2023/12/02 09:03:22;;;;;;;37.72;14.38;;;0.00;86.30;;;;;;9178401;19;20477;-64
2023/12/02 09:06:29;;;;;;;35.95;14.90;;;0.00;86.30;;;;;;9176887;19;20018;-64
2023/12/02 09:09:37;;;;;;;40.63;15.50;;;0.00;86.30;;;;;;9177389;19;20019;-73
2023/12/02 09:12:45;;;;;;;37.17;13.80;;;0.10;86.40;;;;;;9176692;19;20026;-73
2023/12/02 09:15:52;;;;;;;35.28;14.27;;;0.10;86.30;;;;;;9175893;19;20023;-73
2023/12/02 09:18:59;;;;;;;38.65;15.32;;;0.10;86.30;;;;;;9176493;19;20018;-67
2023/12/02 09:22:07;;;;;;;37.30;14.82;;;0.20;86.30;;;;;;9172248;19;20116;-68
2023/12/02 09:25:29;;;;;;;42.28;15.52;;;0.20;86.30;;;;;;9173370;19;20364;-67
2023/12/02 09:28:35;;;;;;;40.55;15.82;;;0.20;86.30;;;;;;9176905;19;20014;-67
2023/12/02 09:31:43;;;;;;;38.83;15.50;;;0.20;86.30;;;;;;9175456;19;20007;-68
2023/12/02 09:35:00;;;;;;;35.55;14.63;;;0.30;86.40;;;;;;9175639;19;20018;-69
2023/12/02 09:38:08;;;;;;;33.28;14.15;;;0.30;86.40;;;;;;9176811;19;20345;-67
2023/12/02 09:41:35;;;;;;;36.55;14.40;;;0.30;86.40;;;;;;9174647;19;20029;-67
2023/12/02 09:44:48;;;;;;;37.45;15.43;;;0.40;86.50;;;;;;9175961;19;20018;-67
2023/12/02 09:48:03;;;;;;;39.90;14.55;;;0.40;86.40;;;;;;9176872;19;20014;-68
2023/12/02 09:51:19;;;;;;;40.13;14.77;;;0.50;86.50;;;;;;9174362;19;20098;-69
2023/12/02 09:54:35;;;;;;;36.53;15.40;;;0.50;86.40;;;;;;9175820;19;20442;-69
2023/12/02 09:57:50;;;;;;;38.17;14.95;;;0.50;86.40;;;;;;9171066;19;20018;-68
2023/12/02 10:00:59;;;;;;;38.88;14.90;;;0.50;86.40;;;;;;9174452;19;20018;-67
2023/12/02 10:04:16;;;;;;;32.65;15.10;;;0.60;86.40;;;;;;9174756;19;20022;-67
2023/12/02 10:07:34;;;;;;;47.83;16.58;;;0.60;86.40;;;;;;9174603;19;20030;-68
2023/12/02 10:10:49;;;;;;;38.78;15.70;;;0.60;86.40;;;;;;9175540;19;20476;-68
2023/12/02 10:14:02;;;;;;;33.00;14.02;;;0.70;86.50;;;;;;9175828;19;20082;-69
2023/12/02 10:17:13;;;;;;;38.05;14.90;;;0.70;86.50;;;;;;9173915;19;20045;-69
2023/12/02 10:20:22;;;;;;;36.92;15.90;;;0.80;86.50;;;;;;9175872;19;20018;-68
2023/12/02 10:23:34;;;;;;;37.75;15.07;;;0.80;86.50;;;;;;9175005;19;20686;-68
2023/12/02 10:26:44;;;;;;;39.72;16.30;;;0.80;86.50;;;;;;9175140;19;20965;-68
2023/12/02 10:30:09;;;;;;;34.80;14.57;;;0.90;86.60;;;;;;9175866;19;20029;-68
2023/12/02 10:33:27;;;;;;;41.47;15.35;;;0.90;86.60;;;;;;9174716;19;20471;-68
2023/12/02 10:36:36;;;;;;;42.15;15.40;;;1.00;86.60;;;;;;9177130;19;20037;-68
2023/12/02 10:39:46;;;;;;;35.60;15.15;;;1.00;86.60;;;;;;9183658;19;20006;-68
2023/12/02 10:43:02;;;;;;;41.28;17.00;;;1.00;86.60;;;;;;9179579;19;20472;-68
2023/12/02 10:46:10;;;;;;;44.92;16.30;;;1.10;86.70;;;;;;9181232;19;20026;-68
2023/12/02 10:49:18;;;;;;;41.78;17.45;;;1.10;86.60;;;;;;9183439;19;20019;-68
2023/12/02 10:52:25;;;;;;;42.28;17.10;;;1.10;86.60;;;;;;9183426;19;20048;-69
2023/12/02 10:55:38;;;;;;;42.58;16.83;;;1.20;86.50;;;;;;9183921;19;20022;-69
2023/12/02 10:58:45;;;;;;;44.70;17.60;;;1.20;86.50;;;;;;9180254;19;20468;-69
2023/12/02 11:02:02;;;;;;;48.15;18.33;;;1.20;86.50;;;;;;9181284;19;20018;-68
2023/12/02 11:05:21;;;;;;;44.47;18.02;;;1.20;86.50;;;;;;9183020;19;20086;-68
2023/12/02 11:08:48;;;;;;;42.13;16.35;;;1.20;86.40;;;;;;9182819;19;20010;-67
2023/12/02 11:12:04;;;;;;;43.50;17.73;;;1.30;86.50;;;;;;9182999;19;20025;-67
2023/12/02 11:15:15;;;;;;;42.17;17.92;;;1.30;86.50;;;;;;9182987;19;20025;-66
2023/12/02 11:18:35;;;;;;;51.95;18.00;;;1.30;86.50;;;;;;9183217;19;20358;-67
2023/12/02 11:21:57;;;;;;;48.58;17.30;;;1.40;86.50;;;;;;9179832;19;20041;-67
2023/12/02 11:25:17;;;;;;;46.17;17.95;;;1.40;86.50;;;;;;9182474;19;20463;-67
2023/12/02 11:28:32;;;;;;;44.08;17.73;;;1.40;86.60;;;;;;9182419;19;20368;-69
2023/12/02 11:31:54;;;;;;;43.85;18.10;;;1.40;86.50;;;;;;9181817;19;20749;-67
2023/12/02 11:35:10;;;;;;;;;;;1.50;86.60;;;;;;9182164;19;20022;-66
2023/12/02 11:38:19;;;;;;;49.53;18.23;;;1.50;86.50;;;;;;9181431;19;20009;-68
2023/12/02 11:41:38;;;;;;;42.47;17.15;;;1.50;86.60;;;;;;9178084;19;20021;-67
2023/12/02 11:44:58;;;;;;;45.33;17.67;;;1.50;86.60;;;;;;9179283;19;20159;-68
2023/12/02 11:48:21;;;;;;;47.75;19.27;;;1.50;86.60;;;;;;9178838;19;20018;-69
2023/12/02 11:51:44;;;;;;;42.95;17.50;;;1.50;86.70;;;;;;9180268;19;20014;-68
2023/12/02 11:55:12;;;;;;;43.30;17.35;;;1.60;86.70;;;;;;9181204;19;20021;-63
2023/12/02 11:58:27;;;;;;;48.15;18.85;;;1.70;86.80;;;;;;9175707;19;20014;-62
2023/12/02 12:01:58;;;;;;;47.70;18.25;;;1.70;87.40;;;;;;9180093;19;20022;-69
2023/12/02 12:05:24;;;;;;;40.75;17.77;;;1.70;86.80;;;;;;9179097;19;20026;-68
2023/12/02 12:08:39;;;;;;;46.95;17.08;;;1.80;86.70;;;;;;9179235;19;20014;-71
2023/12/02 12:11:45;;;;;;;47.67;19.07;;;1.80;86.70;;;;;;9180801;19;20018;-70
2023/12/02 12:14:54;;;;;;;44.83;18.63;;;1.90;86.70;;;;;;9178350;19;20509;-70
2023/12/02 12:18:00;;;;;;;50.25;18.27;;;1.90;86.70;;;;;;9180282;19;20018;-70
2023/12/02 12:21:08;;;;;;;45.13;17.48;;;1.90;86.70;;;;;;9181498;19;20022;-70
2023/12/02 12:24:16;;;;;;;39.63;16.40;;;1.90;86.70;;;;;;9179474;19;20031;-73
2023/12/02 12:27:24;;;;;;;47.17;18.33;;;2.00;86.70;;;;;;9178852;19;20601;-73
2023/12/02 12:30:43;;;;;;;47.08;17.92;;;2.00;86.70;;;;;;9179266;19;20034;-74
2023/12/02 12:33:54;;;;;;;41.33;17.48;;;2.00;86.60;;;;;;9180086;19;20014;-74
2023/12/02 12:37:00;;;;;;;47.40;17.80;;;2.10;86.80;;;;;;9177944;19;20103;-75
2023/12/02 12:40:14;;;;;;;42.10;18.40;;;2.10;86.70;;;;;;9175699;19;20367;-76
2023/12/02 12:43:21;;;;;;;42.70;18.65;;;2.10;86.60;;;;;;9177853;19;20029;-75
2023/12/02 12:46:28;;;;;;;43.95;18.17;;;2.20;86.70;;;;;;9178835;19;20030;-74
2023/12/02 12:49:35;;;;;;;41.90;17.33;;;2.20;87.30;;;;;;9176723;19;20022;-73
2023/12/02 12:52:51;;;;;;;43.55;17.38;;;2.20;86.70;;;;;;9174274;19;20014;-73
2023/12/02 12:56:08;;;;;;;41.60;17.25;;;2.20;86.60;;;;;;9179246;19;20479;-75
2023/12/02 12:59:18;;;;;;;45.60;17.98;;;2.30;86.60;;;;;;9179322;19;20015;-73
2023/12/02 13:02:34;;;;;;;44.60;18.25;;;2.30;86.60;;;;;;9175589;19;20051;-73
2023/12/02 13:05:43;;;;;;;42.80;18.35;;;2.30;86.60;;;;;;9175269;19;20029;-73
2023/12/02 13:08:53;;;;;;;42.10;17.92;;;2.30;86.60;;;;;;9175088;19;20025;-74
2023/12/02 13:12:10;;;;;;;42.33;18.27;;;2.30;86.50;;;;;;9172288;19;20496;-73
2023/12/02 13:15:21;;;;;;;43.50;18.23;;;2.40;86.60;;;;;;9171297;19;20014;-74
2023/12/02 13:18:31;;;;;;;52.70;19.98;;;2.40;86.60;;;;;;9171526;19;20022;-74
2023/12/02 13:21:39;;;;;;;45.47;18.02;;;2.40;86.50;;;;;;9173596;19;20412;-73
2023/12/02 13:24:53;;;;;;;48.50;18.95;;;2.40;86.50;;;;;;9176093;19;20026;-73
2023/12/02 13:28:08;;;;;;;43.20;17.80;;;2.40;86.50;;;;;;9177210;19;20015;-73
2023/12/02 13:31:16;;;;;;;41.25;17.10;;;2.50;86.50;;;;;;9176916;19;20029;-73
2023/12/02 13:34:32;;;;;;;45.00;18.30;;;2.50;86.60;;;;;;9175370;19;20527;-70
2023/12/02 13:37:46;;;;;;;41.10;16.73;;;2.50;87.20;;;;;;9176370;19;20007;-69
2023/12/02 13:41:02;;;;;;;42.08;16.73;;;2.50;86.60;;;;;;9176332;19;20383;-70
2023/12/02 13:44:16;;;;;;;39.67;16.70;;;2.50;86.60;;;;;;9174327;19;20018;-72
2023/12/02 13:47:32;;;;;;;43.53;16.98;;;2.50;86.60;;;;;;9175656;19;20559;-74
2023/12/02 13:50:50;;;;;;;40.67;16.77;;;2.50;86.60;;;;;;9176325;19;20015;-71
2023/12/02 13:54:07;;;;;;;45.60;17.77;;;2.60;86.60;;;;;;9174095;19;20018;-73
2023/12/02 13:57:25;;;;;;;43.95;18.60;;;2.60;86.50;;;;;;9172235;19;20025;-72
2023/12/02 14:00:46;;;;;;;49.50;18.08;;;2.60;86.60;;;;;;9176180;19;20490;-71
2023/12/02 14:04:12;;;;;;;39.03;17.10;;;2.60;86.50;;;;;;9173287;19;20010;-71
2023/12/02 14:07:22;;;;;;;;;;;2.60;86.50;;;;;;9176573;19;20506;-70
2023/12/02 14:10:31;;;;;;;38.83;16.23;;;2.60;86.50;;;;;;9174565;19;19918;-70
2023/12/02 14:13:48;;;;;;;44.40;17.75;;;2.60;86.50;;;;;;9173564;19;20015;-72
2023/12/02 14:17:09;;;;;;;42.38;17.65;;;2.60;86.50;;;;;;9173517;19;20018;-70
2023/12/02 14:20:31;;;;;;;42.88;16.73;;;2.60;86.50;;;;;;9174587;19;20018;-73
2023/12/02 14:24:12;;;;;;;43.17;17.45;;;2.70;86.60;;;;;;9173917;19;20014;-70
2023/12/02 14:27:29;;;;;;;40.78;16.67;;;2.60;86.50;;;;;;9174803;19;20019;-71
2023/12/02 14:31:05;;;;;;;43.08;16.63;;;2.70;86.60;;;;;;9173964;19;20033;-72
2023/12/02 14:35:04;;;;;;;41.87;17.20;;;2.70;86.50;;;;;;9174190;19;20019;-69
2023/12/02 14:38:34;;;;;;;41.22;16.50;;;2.70;86.60;;;;;;9173064;19;20007;-71
2023/12/02 14:41:49;;;;;;;44.35;18.20;;;2.70;87.10;;;;;;9174688;19;20541;-70
2023/12/02 14:44:57;;;;;;;43.85;18.08;;;2.70;86.50;;;;;;9172284;19;20346;-70
2023/12/02 14:48:11;;;;;;;42.50;18.35;;;2.70;86.50;;;;;;9174049;19;20380;-72
2023/12/02 14:51:22;;;;;;;43.22;17.65;;;2.70;86.60;;;;;;9171774;19;20011;-72
2023/12/02 14:54:30;;;;;;;43.78;18.25;;;2.70;86.60;;;;;;9171759;19;20637;-71
2023/12/02 14:57:37;;;;;;;44.55;17.70;;;2.70;86.50;;;;;;9170177;19;20770;-70
2023/12/02 15:00:43;;;;;;;41.42;17.30;;;2.70;86.50;;;;;;9174348;19;20025;-72
2023/12/02 15:03:53;;;;;;;42.15;16.85;;;2.60;86.40;;;;;;9172810;19;20017;-70
2023/12/02 15:07:06;;;;;;;44.05;17.33;;;2.70;86.50;;;;;;9171098;19;20343;-70
2023/12/02 15:10:16;;;;;;;47.22;17.67;;;2.60;86.40;;;;;;9171966;19;20022;-72
2023/12/02 15:13:39;;;;;;;35.97;16.25;;;2.60;86.40;;;;;;9174005;19;20629;-70
2023/12/02 15:16:49;;;;;;;48.90;19.63;;;2.60;86.40;;;;;;9171811;19;20022;-71
2023/12/02 15:19:55;;;;;;;47.33;18.60;;;2.60;86.40;;;;;;9173277;19;20485;-70
2023/12/02 15:23:33;;;;;;;45.08;18.90;;;2.60;86.40;;;;;;9174578;19;20036;-71
2023/12/02 15:26:44;;;;;;;47.47;18.98;;;2.60;86.40;;;;;;9181026;19;20065;-69
2023/12/02 15:29:52;;;;;;;42.72;17.27;;;2.50;86.40;;;;;;9181245;19;20123;-70
2023/12/02 15:32:58;;;;;;;42.85;18.20;;;2.60;86.40;;;;;;9180138;19;20006;-70
2023/12/02 15:36:09;;;;;;;38.97;17.05;;;2.50;86.40;;;;;;9178310;19;20014;-70
2023/12/02 15:39:14;;;;;;;47.47;18.15;;;2.50;86.40;;;;;;9178446;19;20498;-75
2023/12/02 15:42:25;;;;;;;46.25;17.30;;;2.50;86.50;;;;;;9172104;19;20018;-72
2023/12/02 15:45:31;;;;;;;45.10;17.35;;;2.40;86.40;;;;;;9176884;19;20103;-70
2023/12/02 15:48:41;;;;;;;39.20;16.75;;;2.40;86.40;;;;;;9179837;19;20018;-70
2023/12/02 15:51:46;;;;;;;44.25;17.17;;;2.40;86.50;;;;;;9179407;19;20021;-70
2023/12/02 15:54:54;;;;;;;46.38;17.52;;;2.40;86.40;;;;;;9179593;19;20034;-74
2023/12/02 15:58:03;;;;;;;46.30;17.52;;;2.40;86.40;;;;;;9173398;19;20018;-74
2023/12/02 16:01:15;;;;;;;40.30;17.45;;;2.40;86.50;;;;;;9178818;19;20023;-77
2023/12/02 16:04:22;;;;;;;49.40;19.38;;;2.30;86.50;;;;;;9176702;19;20015;-76
2023/12/02 16:07:30;;;;;;;46.67;19.48;;;2.30;86.40;;;;;;9178139;19;20014;-75
2023/12/02 16:10:36;;;;;;;44.17;17.67;;;2.30;86.50;;;;;;9178987;19;20023;-76
2023/12/02 16:13:46;;;;;;;46.88;19.45;;;2.30;86.50;;;;;;9179189;19;20028;-74